createdAt,value
2019-05-10T00:01:25.086Z,2.87
2019-05-10T00:04:15.342Z,2.87
2019-05-10T00:07:02.500Z,2.77
2019-05-10T00:09:36.699Z,2.80
2019-05-10T00:12:23.188Z,2.10
2019-05-10T00:14:54.298Z,4.60
2019-05-10T00:17:23.877Z,3.67
2019-05-10T00:19:56.198Z,2.47
2019-05-10T00:22:27.092Z,2.90
2019-05-10T00:25:04.286Z,4.20
2019-05-10T00:27:29.312Z,2.50
2019-05-10T00:29:58.998Z,2.00
2019-05-10T00:32:28.475Z,2.63
2019-05-10T00:34:57.985Z,2.57
2019-05-10T00:37:27.435Z,2.77
2019-05-10T00:39:58.641Z,2.90
2019-05-10T00:42:28.101Z,3.70
2019-05-10T00:44:57.546Z,2.57
2019-05-10T00:47:27.047Z,2.43
2019-05-10T00:49:56.828Z,2.80
2019-05-10T00:52:26.050Z,3.20
2019-05-10T00:54:55.487Z,3.60
2019-05-10T00:57:25.943Z,2.20
2019-05-10T00:59:56.194Z,4.60
2019-05-10T01:02:25.381Z,2.97
2019-05-10T01:04:54.582Z,2.90
2019-05-10T01:07:24.553Z,3.37
2019-05-10T01:09:54.511Z,3.93
2019-05-10T01:12:23.914Z,2.30
2019-05-10T01:14:53.091Z,6.03
2019-05-10T01:17:24.993Z,3.67
2019-05-10T01:19:56.170Z,4.30
2019-05-10T01:22:26.866Z,3.37
2019-05-10T01:24:56.030Z,3.47
2019-05-10T01:27:25.832Z,6.27
2019-05-10T01:29:56.121Z,3.63
2019-05-10T01:32:25.319Z,4.60
2019-05-10T01:34:54.741Z,3.83
2019-05-10T01:37:26.181Z,4.53
2019-05-10T01:39:55.642Z,3.90
2019-05-10T01:42:24.840Z,2.97
2019-05-10T01:44:54.043Z,3.10
2019-05-10T01:47:23.502Z,4.20
2019-05-10T01:49:52.690Z,6.57
2019-05-10T01:52:22.180Z,4.03
2019-05-10T01:54:52.048Z,4.43
2019-05-10T01:57:21.269Z,3.30
2019-05-10T01:59:50.982Z,5.03
2019-05-10T02:02:23.163Z,5.37
2019-05-10T02:04:52.351Z,6.80
2019-05-10T02:07:22.650Z,7.10
2019-05-10T02:09:51.815Z,5.77
2019-05-10T02:12:21.027Z,5.73
2019-05-10T02:14:52.698Z,4.13
2019-05-10T02:17:21.897Z,5.23
2019-05-10T02:19:51.616Z,6.30
2019-05-10T02:22:21.559Z,3.00
2019-05-10T02:24:50.753Z,3.90
2019-05-10T02:27:19.928Z,5.37
2019-05-10T02:29:49.117Z,4.00
2019-05-10T02:32:18.286Z,3.67
2019-05-10T02:34:47.773Z,6.13
2019-05-10T02:37:17.762Z,5.40
2019-05-10T02:39:47.534Z,3.87
2019-05-10T02:42:17.729Z,5.27
2019-05-10T02:44:48.032Z,6.43
2019-05-10T02:47:18.317Z,4.97
2019-05-10T02:49:48.934Z,7.80
2019-05-10T02:52:18.848Z,5.13
2019-05-10T02:54:48.606Z,4.63
2019-05-10T02:57:21.031Z,10.77
2019-05-10T02:59:52.063Z,4.93
2019-05-10T03:02:23.703Z,4.73
2019-05-10T03:04:55.002Z,6.57
2019-05-10T03:07:26.397Z,7.63
2019-05-10T03:09:55.847Z,5.03
2019-05-10T03:12:28.876Z,5.57
2019-05-10T03:14:59.600Z,3.93
2019-05-10T03:17:29.716Z,4.63
2019-05-10T03:20:03.461Z,7.00
2019-05-10T03:22:39.590Z,5.50
2019-05-10T03:25:10.155Z,6.80
2019-05-10T03:27:39.931Z,5.67
2019-05-10T03:30:09.834Z,5.13
2019-05-10T03:32:40.196Z,7.97
2019-05-10T03:35:10.917Z,4.70
2019-05-10T03:37:40.248Z,3.57
2019-05-10T03:40:11.185Z,4.47
2019-05-10T03:42:40.342Z,4.80
2019-05-10T03:45:10.297Z,4.77
2019-05-10T03:47:40.065Z,6.30
2019-05-10T03:50:09.468Z,8.87
2019-05-10T03:52:38.895Z,7.17
2019-05-10T03:55:08.334Z,4.13
2019-05-10T03:57:37.754Z,5.07
2019-05-10T04:00:07.815Z,5.33
2019-05-10T04:02:37.480Z,7.43
2019-05-10T04:05:07.461Z,4.63
2019-05-10T04:07:36.634Z,7.40
2019-05-10T04:10:06.267Z,5.37
2019-05-10T04:12:35.464Z,6.20
2019-05-10T04:15:05.151Z,4.47
2019-05-10T04:17:36.711Z,6.20
2019-05-10T04:20:07.749Z,8.03
2019-05-10T04:22:37.192Z,5.93
2019-05-10T04:25:09.284Z,6.73
2019-05-10T04:27:42.426Z,5.63
2019-05-10T04:30:13.638Z,5.70
2019-05-10T04:32:43.838Z,6.17
2019-05-10T04:35:13.135Z,6.43
2019-05-10T04:37:42.866Z,2.80
2019-05-10T04:40:12.337Z,4.50
2019-05-10T04:42:42.368Z,4.13
2019-05-10T04:45:17.407Z,5.70
2019-05-10T04:47:48.089Z,6.13
2019-05-10T04:50:17.580Z,3.93
2019-05-10T04:52:48.311Z,5.70
2019-05-10T04:55:17.465Z,5.13
2019-05-10T04:57:50.793Z,4.47
2019-05-10T05:00:19.216Z,4.13
2019-05-10T05:02:48.534Z,8.63
2019-05-10T05:05:18.526Z,4.73
2019-05-10T05:07:47.732Z,5.13
2019-05-10T05:10:17.691Z,5.27
2019-05-10T05:12:49.910Z,8.03
2019-05-10T05:15:19.420Z,7.00
2019-05-10T05:17:48.951Z,7.17
2019-05-10T05:20:18.425Z,6.10
2019-05-10T05:22:47.997Z,6.30
2019-05-10T05:25:17.959Z,7.17
2019-05-10T05:27:47.407Z,5.67
2019-05-10T05:30:17.778Z,5.57
2019-05-10T05:32:47.744Z,7.23
2019-05-10T05:35:17.986Z,7.83
2019-05-10T05:37:49.543Z,7.10
2019-05-10T05:40:23.395Z,7.63
2019-05-10T05:42:55.550Z,6.50
2019-05-10T05:45:28.382Z,6.20
2019-05-10T05:47:55.623Z,6.53
2019-05-10T05:50:25.826Z,4.90
2019-05-10T05:52:55.091Z,5.63
2019-05-10T05:55:24.521Z,5.93
2019-05-10T05:57:53.713Z,7.10
2019-05-10T06:00:23.145Z,5.63
2019-05-10T06:02:53.533Z,5.30
2019-05-10T06:05:33.522Z,5.27
2019-05-10T06:07:54.237Z,5.07
2019-05-10T06:10:23.449Z,4.87
2019-05-10T06:12:54.127Z,4.47
2019-05-10T06:15:28.864Z,6.03
2019-05-10T06:17:57.166Z,7.43
2019-05-10T06:20:25.913Z,8.60
2019-05-10T06:23:06.500Z,6.57
2019-05-10T06:25:38.827Z,5.57
2019-05-10T06:27:58.275Z,3.73
2019-05-10T06:30:28.037Z,4.70
2019-05-10T06:33:06.899Z,6.07
2019-05-10T06:35:32.132Z,4.60
2019-05-10T06:38:11.282Z,5.73
2019-05-10T06:40:46.800Z,5.20
2019-05-10T06:43:15.475Z,4.73
2019-05-10T06:45:46.572Z,6.13
2019-05-10T06:48:26.064Z,8.17
2019-05-10T06:50:48.134Z,4.80
2019-05-10T06:53:18.110Z,5.50
2019-05-10T06:55:49.553Z,10.13
2019-05-10T06:58:20.466Z,7.30
2019-05-10T07:00:49.872Z,6.00
2019-05-10T07:03:20.312Z,7.60
2019-05-10T07:05:53.282Z,6.57
2019-05-10T07:08:23.365Z,4.90
2019-05-10T07:10:52.556Z,9.10
2019-05-10T07:13:22.768Z,5.77
2019-05-10T07:15:53.567Z,9.87
2019-05-10T07:18:24.302Z,8.73
2019-05-10T07:21:00.923Z,10.13
2019-05-10T07:23:30.227Z,6.77
2019-05-10T07:26:00.364Z,8.03
2019-05-10T07:28:29.911Z,4.57
2019-05-10T07:31:00.421Z,6.07
2019-05-10T07:33:32.220Z,6.43
2019-05-10T07:36:03.259Z,8.93
2019-05-10T07:38:35.424Z,5.70
2019-05-10T07:41:04.632Z,6.83
2019-05-10T07:43:33.885Z,6.60
2019-05-10T07:46:09.072Z,6.40
2019-05-10T07:48:41.149Z,5.43
2019-05-10T07:51:12.343Z,4.97
2019-05-10T07:53:42.604Z,5.33
2019-05-10T07:56:12.207Z,7.03
2019-05-10T07:58:43.168Z,5.07
2019-05-10T08:01:12.579Z,6.47
2019-05-10T08:03:48.169Z,7.13
2019-05-10T08:06:15.560Z,6.57
2019-05-10T08:08:46.487Z,7.53
2019-05-10T08:11:15.680Z,4.90
2019-05-10T08:13:45.598Z,4.93
2019-05-10T08:16:21.899Z,6.20
2019-05-10T08:18:49.296Z,8.57
2019-05-10T08:21:22.224Z,9.57
2019-05-10T08:23:51.860Z,4.57
2019-05-10T08:26:24.627Z,6.07
2019-05-10T08:28:53.007Z,5.07
2019-05-10T08:31:26.131Z,3.50
2019-05-10T08:33:58.957Z,6.67
2019-05-10T08:36:32.207Z,7.60
2019-05-10T08:39:10.008Z,5.07
2019-05-10T08:41:34.267Z,6.30
2019-05-10T08:44:04.893Z,10.77
2019-05-10T08:46:41.220Z,5.53
2019-05-10T08:49:08.075Z,5.50
2019-05-10T08:51:44.234Z,4.63
2019-05-10T08:54:08.192Z,3.27
2019-05-10T08:56:37.608Z,4.67
2019-05-10T08:59:09.561Z,5.17
2019-05-10T09:01:44.831Z,3.43
2019-05-10T09:04:11.725Z,5.70
2019-05-10T09:06:42.100Z,5.40
2019-05-10T09:09:12.557Z,4.20
2019-05-10T09:11:44.255Z,6.67
2019-05-10T09:14:19.749Z,5.33
2019-05-10T09:16:52.766Z,4.07
2019-05-10T09:19:14.879Z,4.33
2019-05-10T09:21:49.508Z,2.77
2019-05-10T09:24:15.337Z,5.20
2019-05-10T09:26:46.831Z,4.10
2019-05-10T09:29:16.065Z,4.03
2019-05-10T09:31:50.491Z,3.23
2019-05-10T09:34:17.558Z,3.50
2019-05-10T09:36:47.259Z,5.10
2019-05-10T09:39:21.485Z,2.73
2019-05-10T09:41:48.113Z,2.87
2019-05-10T09:44:18.167Z,2.27
2019-05-10T09:46:47.643Z,3.40
2019-05-10T09:49:18.582Z,7.30
2019-05-10T09:51:47.883Z,1.80
2019-05-10T09:54:23.285Z,2.87
2019-05-10T09:56:52.257Z,3.97
2019-05-10T09:59:21.274Z,1.83
2019-05-10T10:01:50.437Z,6.23
2019-05-10T10:04:20.472Z,4.30
2019-05-10T10:06:52.614Z,2.90
2019-05-10T10:09:24.687Z,5.33
2019-05-10T10:11:58.061Z,2.67
2019-05-10T10:14:22.760Z,3.00
2019-05-10T10:16:58.207Z,3.07
2019-05-10T10:19:24.566Z,2.47
2019-05-10T10:21:57.623Z,5.20
2019-05-10T10:24:28.505Z,3.47
2019-05-10T10:26:58.207Z,3.70
2019-05-10T10:29:34.031Z,4.60
2019-05-10T10:32:01.344Z,3.10
2019-05-10T10:34:32.704Z,3.00
2019-05-10T10:37:02.717Z,4.97
2019-05-10T10:39:32.559Z,3.97
2019-05-10T10:42:02.561Z,3.43
2019-05-10T10:44:37.073Z,3.37
2019-05-10T10:47:08.121Z,4.37
2019-05-10T10:49:37.879Z,2.50
2019-05-10T10:52:11.243Z,3.87
2019-05-10T10:54:40.380Z,3.37
2019-05-10T10:57:19.062Z,2.10
2019-05-10T10:59:57.526Z,2.30
2019-05-10T11:02:33.447Z,3.40
2019-05-10T11:05:04.186Z,3.83
2019-05-10T11:07:36.060Z,2.20
2019-05-10T11:10:15.227Z,4.00
2019-05-10T11:12:35.951Z,6.37
2019-05-10T11:15:11.189Z,4.13
2019-05-10T11:17:43.257Z,2.80
2019-05-10T11:20:13.491Z,5.33
2019-05-10T11:22:49.632Z,4.53
2019-05-10T11:25:15.913Z,6.77
2019-05-10T11:27:47.637Z,5.73
2019-05-10T11:30:18.342Z,3.20
2019-05-10T11:32:48.604Z,2.60
2019-05-10T11:35:27.794Z,2.80
2019-05-10T11:37:51.575Z,5.17
2019-05-10T11:40:30.326Z,3.13
2019-05-10T11:42:54.055Z,3.70
2019-05-10T11:45:26.158Z,3.40
2019-05-10T11:47:59.240Z,4.33
2019-05-10T11:50:35.323Z,3.60
2019-05-10T11:53:07.035Z,2.83
2019-05-10T11:55:39.593Z,4.63
2019-05-10T11:58:08.597Z,9.87
2019-05-10T12:00:41.203Z,2.90
2019-05-10T12:03:15.051Z,2.77
2019-05-10T12:05:42.806Z,2.03
2019-05-10T12:08:13.244Z,3.17
2019-05-10T12:10:52.750Z,1.50
2019-05-10T12:13:20.847Z,2.97
2019-05-10T12:15:52.063Z,4.30
2019-05-10T12:18:26.582Z,2.77
2019-05-10T12:23:29.513Z,2.17
2019-05-10T12:26:19.914Z,3.07
2019-05-10T12:28:40.628Z,1.40
2019-05-10T12:31:15.283Z,2.07
2019-05-10T12:33:44.783Z,2.17
2019-05-10T12:36:22.382Z,2.67
2019-05-10T12:38:43.658Z,2.17
2019-05-10T12:41:14.669Z,4.53
2019-05-10T12:44:05.726Z,4.30
2019-05-10T12:46:30.682Z,4.43
2019-05-10T12:49:02.112Z,2.70
2019-05-10T12:51:31.764Z,1.97
2019-05-10T12:54:01.333Z,5.27
2019-05-10T12:56:34.934Z,3.87
2019-05-10T12:59:04.430Z,1.60
2019-05-10T13:01:34.461Z,2.67
2019-05-10T13:04:13.877Z,2.07
2019-05-10T13:06:38.723Z,2.73
2019-05-10T13:09:09.621Z,2.80
2019-05-10T13:11:41.251Z,3.97
2019-05-10T13:14:11.692Z,2.27
2019-05-10T13:16:41.949Z,2.97
2019-05-10T13:19:14.343Z,3.17
2019-05-10T13:21:43.503Z,1.90
2019-05-10T13:24:13.937Z,3.87
2019-05-10T13:26:43.937Z,2.57
2019-05-10T13:29:14.262Z,1.37
2019-05-10T13:31:44.430Z,3.00
2019-05-10T13:34:13.687Z,2.50
2019-05-10T13:36:42.880Z,4.53
2019-05-10T13:39:12.049Z,2.93
2019-05-10T13:41:41.254Z,2.53
2019-05-10T13:44:10.758Z,2.63
2019-05-10T13:46:39.960Z,1.90
2019-05-10T13:49:09.447Z,1.43
2019-05-10T13:51:38.928Z,3.90
2019-05-10T13:54:12.625Z,3.07
2019-05-10T13:56:45.527Z,1.50
2019-05-10T13:59:16.406Z,1.60
2019-05-10T14:01:48.850Z,2.90
2019-05-10T14:04:14.929Z,2.73
2019-05-10T14:06:44.380Z,2.50
2019-05-10T14:09:13.525Z,3.37
2019-05-10T14:11:46.794Z,1.97
2019-05-10T14:14:20.249Z,2.20
2019-05-10T14:16:45.773Z,2.83
2019-05-10T14:19:15.819Z,1.43
2019-05-10T14:21:46.439Z,4.47
2019-05-10T14:24:16.702Z,2.83
2019-05-10T14:26:45.971Z,2.67
2019-05-10T14:29:15.427Z,5.70
2019-05-10T14:31:45.310Z,1.20
2019-05-10T14:34:15.699Z,1.27
2019-05-10T14:36:45.383Z,1.20
2019-05-10T14:39:14.603Z,1.57
2019-05-10T14:41:45.430Z,1.93
2019-05-10T14:44:15.033Z,2.17
2019-05-10T14:46:44.492Z,3.00
2019-05-10T14:49:13.708Z,2.27
2019-05-10T14:51:57.830Z,3.10
2019-05-10T14:54:13.803Z,3.33
2019-05-10T14:56:43.260Z,3.80
2019-05-10T14:59:12.491Z,1.97
2019-05-10T15:01:43.041Z,2.83
2019-05-10T15:04:20.232Z,3.10
2019-05-10T15:06:43.904Z,2.40
2019-05-10T15:09:20.933Z,2.03
2019-05-10T15:11:44.802Z,3.90
2019-05-10T15:14:14.019Z,2.13
2019-05-10T15:16:43.177Z,3.97
2019-05-10T15:19:12.720Z,2.00
2019-05-10T15:21:41.901Z,2.17
2019-05-10T15:24:11.100Z,3.17
2019-05-10T15:26:44.004Z,3.30
2019-05-10T15:29:14.843Z,3.57
2019-05-10T15:31:42.997Z,2.57
2019-05-10T15:34:12.200Z,1.80
2019-05-10T15:36:41.407Z,3.93
2019-05-10T15:39:10.596Z,1.90
2019-05-10T15:41:43.814Z,1.20
2019-05-10T15:44:13.004Z,0.90
2019-05-10T15:46:42.598Z,3.63
2019-05-10T15:49:18.579Z,1.97
2019-05-10T15:51:48.995Z,1.63
2019-05-10T15:54:15.374Z,2.30
2019-05-10T15:56:44.994Z,2.47
2019-05-10T15:59:18.920Z,2.17
2019-05-10T16:01:48.921Z,3.17
2019-05-10T16:04:19.027Z,2.60
2019-05-10T16:06:49.455Z,2.70
2019-05-10T16:09:19.389Z,2.40
2019-05-10T16:11:50.490Z,2.13
2019-05-10T16:14:19.718Z,2.03
2019-05-10T16:16:49.917Z,1.93
2019-05-10T16:19:31.811Z,2.23
2019-05-10T16:22:00.997Z,1.53
2019-05-10T16:24:30.158Z,1.60
2019-05-10T16:27:00.177Z,1.57
2019-05-10T16:29:33.752Z,3.60
2019-05-10T16:32:03.287Z,2.13
2019-05-10T16:34:34.201Z,2.80
2019-05-10T16:37:04.075Z,2.00
2019-05-10T16:39:33.284Z,2.43
2019-05-10T16:42:02.493Z,2.10
2019-05-10T16:44:31.662Z,2.80
2019-05-10T16:47:00.955Z,2.70
2019-05-10T16:49:30.127Z,3.30
2019-05-10T16:51:59.563Z,3.23
2019-05-10T16:54:29.525Z,2.13
2019-05-10T16:56:59.786Z,2.27
2019-05-10T16:59:31.388Z,1.57
2019-05-10T17:02:04.166Z,4.10
2019-05-10T17:04:37.330Z,2.90
2019-05-10T17:07:06.401Z,2.27
2019-05-10T17:09:35.569Z,3.27
2019-05-10T17:12:04.877Z,3.03
2019-05-10T17:14:36.617Z,1.33
2019-05-10T17:17:10.350Z,1.47
2019-05-10T17:19:47.671Z,2.97
2019-05-10T17:22:17.724Z,5.57
2019-05-10T17:25:03.462Z,2.87
2019-05-10T17:27:30.227Z,2.33
2019-05-10T17:30:05.547Z,1.70
2019-05-10T17:32:35.123Z,3.70
2019-05-10T17:35:06.636Z,3.30
2019-05-10T17:37:38.866Z,3.63
2019-05-10T17:40:12.078Z,2.67
2019-05-10T17:42:43.122Z,3.50
2019-05-10T17:45:12.895Z,4.80
2019-05-10T17:47:42.478Z,4.03
2019-05-10T17:50:12.338Z,4.07
2019-05-10T17:52:41.609Z,2.73
2019-05-10T17:55:16.672Z,2.87
2019-05-10T17:57:42.674Z,3.73
2019-05-10T18:00:14.208Z,2.73
2019-05-10T18:02:43.432Z,2.50
2019-05-10T18:05:13.702Z,2.00
2019-05-10T18:07:43.259Z,2.40
2019-05-10T18:10:14.689Z,2.23
2019-05-10T18:12:43.905Z,1.60
2019-05-10T18:15:14.855Z,3.53
2019-05-10T18:17:45.088Z,2.13
2019-05-10T18:20:14.370Z,3.63
2019-05-10T18:22:45.344Z,2.40
2019-05-10T18:25:20.671Z,3.57
2019-05-10T18:27:47.543Z,2.00
2019-05-10T18:30:18.426Z,2.07
2019-05-10T18:32:47.922Z,2.00
2019-05-10T18:35:18.589Z,2.47
2019-05-10T18:37:53.713Z,2.10
2019-05-10T18:40:25.206Z,2.90
2019-05-10T18:42:57.730Z,2.67
2019-05-10T18:45:29.832Z,2.27
2019-05-10T18:47:59.770Z,2.33
2019-05-10T18:50:29.793Z,2.50
2019-05-10T18:52:59.277Z,2.17
2019-05-10T18:55:29.589Z,5.50
2019-05-10T18:58:00.119Z,5.37
2019-05-10T19:00:30.296Z,2.27
2019-05-10T19:02:59.488Z,4.00
2019-05-10T19:05:33.024Z,3.50
2019-05-10T19:08:05.256Z,3.03
2019-05-10T19:10:37.832Z,4.33
2019-05-10T19:13:08.638Z,4.53
2019-05-10T19:15:38.296Z,3.23
2019-05-10T19:18:09.087Z,4.33
2019-05-10T19:20:40.521Z,3.83
2019-05-10T19:23:13.079Z,4.30
2019-05-10T19:25:45.514Z,3.37
2019-05-10T19:28:15.259Z,4.03
2019-05-10T19:30:46.160Z,4.00
2019-05-10T19:33:17.590Z,5.13
2019-05-10T19:35:48.355Z,3.73
2019-05-10T19:38:17.862Z,2.93
2019-05-10T19:40:48.489Z,3.03
2019-05-10T19:43:23.817Z,4.00
2019-05-10T19:45:57.257Z,3.70
2019-05-10T19:48:29.439Z,3.47
2019-05-10T19:51:02.943Z,4.70
2019-05-10T19:53:30.825Z,4.87
2019-05-10T19:56:04.089Z,4.83
2019-05-10T19:58:34.107Z,5.33
2019-05-10T20:01:03.554Z,4.33
2019-05-10T20:03:36.960Z,3.97
2019-05-10T20:06:11.293Z,4.83
2019-05-10T20:08:41.336Z,3.53
2019-05-10T20:11:15.293Z,4.27
2019-05-10T20:13:42.361Z,4.73
2019-05-10T20:16:12.075Z,4.03
2019-05-10T20:18:41.784Z,4.57
2019-05-10T20:21:12.159Z,3.70
2019-05-10T20:23:44.688Z,3.63
2019-05-10T20:26:14.151Z,4.57
2019-05-10T20:28:45.487Z,3.37
2019-05-10T20:31:15.156Z,8.13
2019-05-10T20:33:45.701Z,6.53
2019-05-10T20:36:14.864Z,6.37
2019-05-10T20:38:45.371Z,6.73
2019-05-10T20:41:14.545Z,8.70
2019-05-10T20:43:44.337Z,5.90
2019-05-10T20:46:13.513Z,4.37
2019-05-10T20:48:44.933Z,6.60
2019-05-10T20:51:14.120Z,9.50
2019-05-10T20:53:43.290Z,9.67
2019-05-10T20:56:12.476Z,9.67
2019-05-10T20:58:41.647Z,7.60
2019-05-10T21:01:10.913Z,5.67
2019-05-10T21:03:40.069Z,6.63
2019-05-10T21:06:09.336Z,8.73
2019-05-10T21:08:38.503Z,8.60
2019-05-10T21:11:07.708Z,8.33
2019-05-10T21:13:37.175Z,6.73
2019-05-10T21:16:07.641Z,6.27
2019-05-10T21:18:36.819Z,5.90
2019-05-10T21:21:07.600Z,4.30
2019-05-10T21:23:37.461Z,3.80
2019-05-10T21:26:09.591Z,4.57
2019-05-10T21:28:39.918Z,5.80
2019-05-10T21:31:09.464Z,8.13
2019-05-10T21:33:39.985Z,5.43
2019-05-10T21:36:10.232Z,5.20
2019-05-10T21:38:41.858Z,6.93
2019-05-10T21:41:11.375Z,5.03
2019-05-10T21:43:40.812Z,7.10
2019-05-10T21:46:10.781Z,5.70
2019-05-10T21:48:41.038Z,4.80
2019-05-10T21:51:10.479Z,5.57
2019-05-10T21:53:40.408Z,8.03
2019-05-10T21:56:09.890Z,5.63
2019-05-10T21:58:40.220Z,6.53
2019-05-10T22:01:09.754Z,5.10
2019-05-10T22:03:39.197Z,6.03
2019-05-10T22:06:08.961Z,7.30
2019-05-10T22:08:48.905Z,7.07
2019-05-10T22:11:10.663Z,6.17
2019-05-10T22:13:39.835Z,5.50
2019-05-10T22:16:11.821Z,5.80
2019-05-10T22:18:44.033Z,7.93
2019-05-10T22:21:14.015Z,7.47
2019-05-10T22:23:43.184Z,7.90
2019-05-10T22:26:12.923Z,13.13
2019-05-10T22:28:42.425Z,10.63
2019-05-10T22:31:13.544Z,9.53
2019-05-10T22:33:43.454Z,9.60
2019-05-10T22:36:13.222Z,8.00
2019-05-10T22:38:43.160Z,7.80
2019-05-10T22:41:13.284Z,7.93
2019-05-10T22:43:43.678Z,8.23
2019-05-10T22:46:14.760Z,6.03
2019-05-10T22:48:44.184Z,6.93
2019-05-10T22:51:13.639Z,7.07
2019-05-10T22:53:42.805Z,6.53
2019-05-10T22:56:12.536Z,5.40
2019-05-10T22:58:41.706Z,6.63
2019-05-10T23:01:10.902Z,4.67
2019-05-10T23:03:41.566Z,5.87
2019-05-10T23:06:11.339Z,4.07
2019-05-10T23:08:41.879Z,4.87
2019-05-10T23:11:11.614Z,5.70
2019-05-10T23:13:41.772Z,4.93
2019-05-10T23:16:10.973Z,6.17
2019-05-10T23:18:40.170Z,6.63
2019-05-10T23:21:09.686Z,5.33
2019-05-10T23:23:39.117Z,7.63
2019-05-10T23:26:08.304Z,6.13
2019-05-10T23:28:37.477Z,6.27
2019-05-10T23:31:06.906Z,5.00
2019-05-10T23:33:36.377Z,7.13
2019-05-10T23:36:06.035Z,6.77
2019-05-10T23:38:37.321Z,6.90
2019-05-10T23:41:06.790Z,6.03
2019-05-10T23:43:37.782Z,7.00
2019-05-10T23:46:06.950Z,6.50
2019-05-10T23:48:36.747Z,6.47
2019-05-10T23:51:06.031Z,6.77
2019-05-10T23:53:35.780Z,5.20
2019-05-10T23:56:05.471Z,5.90
2019-05-10T23:58:34.862Z,6.97
